createdAt,value
2019-03-29T00:00:17.530Z,9.16
2019-03-29T00:01:17.481Z,9.2
2019-03-29T00:02:17.521Z,9.23
2019-03-29T00:03:17.523Z,9.27
2019-03-29T00:04:17.580Z,9.26
2019-03-29T00:05:19.176Z,9.27
2019-03-29T00:06:17.526Z,9.26
2019-03-29T00:07:17.545Z,9.27
2019-03-29T00:08:17.520Z,9.27
2019-03-29T00:09:17.491Z,9.29
2019-03-29T00:10:17.505Z,9.3
2019-03-29T00:11:17.487Z,9.29
2019-03-29T00:12:18.754Z,9.27
2019-03-29T00:13:17.569Z,9.3
2019-03-29T00:14:17.645Z,9.31
2019-03-29T00:15:18.445Z,9.31
2019-03-29T00:16:17.489Z,9.29
2019-03-29T00:17:18.476Z,9.27
2019-03-29T00:18:17.492Z,9.3
2019-03-29T00:19:17.543Z,9.24
2019-03-29T00:20:17.518Z,9.24
2019-03-29T00:21:17.464Z,9.27
2019-03-29T00:22:17.548Z,9.27
2019-03-29T00:23:17.527Z,9.24
2019-03-29T00:24:17.516Z,9.29
2019-03-29T00:25:17.503Z,9.29
2019-03-29T00:26:17.632Z,9.26
2019-03-29T00:27:17.504Z,9.26
2019-03-29T00:28:17.459Z,9.26
2019-03-29T00:29:17.482Z,9.26
2019-03-29T00:30:17.565Z,9.27
2019-03-29T00:31:17.475Z,9.26
2019-03-29T00:32:17.537Z,9.24
2019-03-29T00:33:17.449Z,9.26
2019-03-29T00:34:17.440Z,9.26
2019-03-29T00:35:18.359Z,9.27
2019-03-29T00:36:17.586Z,9.26
2019-03-29T00:37:18.341Z,9.26
2019-03-29T00:38:17.469Z,9.26
2019-03-29T00:39:17.455Z,9.24
2019-03-29T00:40:17.451Z,9.27
2019-03-29T00:41:17.443Z,9.24
2019-03-29T00:42:18.401Z,9.26
2019-03-29T00:43:17.472Z,9.26
2019-03-29T00:44:17.443Z,9.23
2019-03-29T00:45:19.083Z,9.21
2019-03-29T00:46:17.477Z,9.23
2019-03-29T00:47:17.426Z,9.2
2019-03-29T00:48:17.446Z,9.2
2019-03-29T00:49:17.486Z,9.2
2019-03-29T00:50:17.470Z,9.2
2019-03-29T00:51:17.688Z,9.19
2019-03-29T00:52:17.420Z,9.2
2019-03-29T00:53:17.433Z,9.2
2019-03-29T00:54:17.439Z,9.2
2019-03-29T00:55:17.487Z,9.21
2019-03-29T00:56:17.466Z,9.19
2019-03-29T00:57:17.605Z,9.2
2019-03-29T00:58:17.437Z,9.17
2019-03-29T00:59:17.474Z,9.19
2019-03-29T01:00:17.450Z,9.19
2019-03-29T01:01:17.402Z,9.17
2019-03-29T01:02:17.437Z,9.19
2019-03-29T01:03:17.438Z,9.14
2019-03-29T01:04:17.397Z,9.14
2019-03-29T01:05:17.396Z,9.14
2019-03-29T01:06:17.411Z,9.11
2019-03-29T01:07:17.481Z,9.1
2019-03-29T01:08:17.416Z,9.13
2019-03-29T01:09:17.418Z,9.1
2019-03-29T01:10:17.387Z,9.1
2019-03-29T01:11:17.407Z,9.06
2019-03-29T01:12:17.464Z,9.03
2019-03-29T01:13:17.434Z,9.03
2019-03-29T01:14:17.430Z,9
2019-03-29T01:15:17.482Z,9.03
2019-03-29T01:16:17.379Z,8.96
2019-03-29T01:17:17.382Z,8.98
2019-03-29T01:18:17.700Z,8.93
2019-03-29T01:19:17.598Z,8.93
2019-03-29T01:20:17.441Z,8.95
2019-03-29T01:21:17.482Z,8.92
2019-03-29T01:22:17.431Z,8.93
2019-03-29T01:23:17.363Z,8.93
2019-03-29T01:24:17.430Z,8.96
2019-03-29T01:25:17.361Z,8.96
2019-03-29T01:26:17.530Z,8.93
2019-03-29T01:27:17.392Z,8.95
2019-03-29T01:28:17.381Z,8.93
2019-03-29T01:29:17.397Z,8.96
2019-03-29T01:30:18.766Z,8.95
2019-03-29T01:31:17.594Z,8.93
2019-03-29T01:32:17.384Z,8.95
2019-03-29T01:33:17.551Z,8.95
2019-03-29T01:34:17.432Z,8.95
2019-03-29T01:35:17.406Z,8.91
2019-03-29T01:36:17.390Z,8.92
2019-03-29T01:37:17.392Z,8.91
2019-03-29T01:38:24.662Z,8.92
2019-03-29T01:39:17.445Z,8.91
2019-03-29T01:40:17.493Z,8.89
2019-03-29T01:41:17.343Z,8.89
2019-03-29T01:42:18.991Z,8.89
2019-03-29T01:43:17.393Z,8.86
2019-03-29T01:44:18.245Z,8.86
2019-03-29T01:45:17.463Z,8.88
2019-03-29T01:46:17.361Z,8.86
2019-03-29T01:47:17.340Z,8.91
2019-03-29T01:48:17.334Z,8.92
2019-03-29T01:49:17.519Z,8.91
2019-03-29T01:50:17.324Z,8.92
2019-03-29T01:51:17.424Z,8.89
2019-03-29T01:52:17.340Z,8.93
2019-03-29T01:53:17.351Z,8.91
2019-03-29T01:54:17.365Z,8.93
2019-03-29T01:55:17.402Z,8.89
2019-03-29T01:56:17.435Z,8.91
2019-03-29T01:57:17.382Z,8.91
2019-03-29T01:58:17.308Z,8.89
2019-03-29T01:59:17.379Z,8.86
2019-03-29T02:00:17.606Z,8.85
2019-03-29T02:01:17.372Z,8.85
2019-03-29T02:02:17.533Z,8.8
2019-03-29T02:03:17.300Z,8.8
2019-03-29T02:04:17.351Z,8.76
2019-03-29T02:05:17.402Z,8.78
2019-03-29T02:06:17.473Z,8.75
2019-03-29T02:07:17.367Z,8.71
2019-03-29T02:08:17.357Z,8.68
2019-03-29T02:09:17.348Z,8.69
2019-03-29T02:10:17.417Z,8.69
2019-03-29T02:11:17.494Z,8.66
2019-03-29T02:12:17.320Z,8.66
2019-03-29T02:13:17.329Z,8.64
2019-03-29T02:14:18.417Z,8.64
2019-03-29T02:15:17.372Z,8.61
2019-03-29T02:16:17.301Z,8.54
2019-03-29T02:17:17.336Z,8.52
2019-03-29T02:18:17.323Z,8.52
2019-03-29T02:19:17.343Z,8.49
2019-03-29T02:20:17.311Z,8.49
2019-03-29T02:21:17.418Z,8.45
2019-03-29T02:22:17.344Z,8.47
2019-03-29T02:23:17.319Z,8.45
2019-03-29T02:24:17.435Z,8.44
2019-03-29T02:25:17.389Z,8.48
2019-03-29T02:26:17.321Z,8.48
2019-03-29T02:27:17.308Z,8.47
2019-03-29T02:28:17.364Z,8.44
2019-03-29T02:29:17.284Z,8.45
2019-03-29T02:30:17.284Z,8.47
2019-03-29T02:31:17.404Z,8.48
2019-03-29T02:32:17.933Z,8.47
2019-03-29T02:33:17.324Z,8.47
2019-03-29T02:34:17.331Z,8.41
2019-03-29T02:35:17.437Z,8.44
2019-03-29T02:36:17.327Z,8.41
2019-03-29T02:37:17.298Z,8.41
2019-03-29T02:38:17.329Z,8.44
2019-03-29T02:39:17.587Z,8.44
2019-03-29T02:40:17.404Z,8.41
2019-03-29T02:41:19.830Z,8.41
2019-03-29T02:42:17.292Z,8.41
2019-03-29T02:43:17.505Z,8.41
2019-03-29T02:44:17.509Z,8.41
2019-03-29T02:45:17.672Z,8.43
2019-03-29T02:46:17.308Z,8.44
2019-03-29T02:47:17.322Z,8.41
2019-03-29T02:48:17.538Z,8.41
2019-03-29T02:49:17.289Z,8.41
2019-03-29T02:50:17.322Z,8.43
2019-03-29T02:51:17.396Z,8.43
2019-03-29T02:52:17.254Z,8.44
2019-03-29T02:53:17.315Z,8.43
2019-03-29T02:54:17.311Z,8.44
2019-03-29T02:55:17.284Z,8.43
2019-03-29T02:56:17.335Z,8.44
2019-03-29T02:57:17.372Z,8.38
2019-03-29T02:58:17.305Z,8.38
2019-03-29T02:59:17.258Z,8.4
2019-03-29T03:00:17.276Z,8.38
2019-03-29T03:01:17.248Z,8.38
2019-03-29T03:02:17.314Z,8.38
2019-03-29T03:03:17.276Z,8.4
2019-03-29T03:04:17.379Z,8.33
2019-03-29T03:05:17.252Z,8.21
2019-03-29T03:06:17.798Z,8.12
2019-03-29T03:07:17.249Z,8.13
2019-03-29T03:08:17.288Z,8.17
2019-03-29T03:09:17.271Z,8.17
2019-03-29T03:10:17.315Z,8.19
2019-03-29T03:11:17.305Z,8.17
2019-03-29T03:12:18.591Z,8.2
2019-03-29T03:13:17.266Z,8.23
2019-03-29T03:14:17.317Z,8.24
2019-03-29T03:15:17.279Z,8.26
2019-03-29T03:16:17.238Z,8.24
2019-03-29T03:17:17.271Z,8.27
2019-03-29T03:18:17.210Z,8.21
2019-03-29T03:19:17.251Z,8.23
2019-03-29T03:20:17.231Z,8.26
2019-03-29T03:21:17.441Z,8.23
2019-03-29T03:22:17.218Z,8.23
2019-03-29T03:23:17.405Z,8.21
2019-03-29T03:24:17.254Z,8.2
2019-03-29T03:25:17.205Z,8.2
2019-03-29T03:26:17.242Z,8.19
2019-03-29T03:27:17.265Z,8.2
2019-03-29T03:28:17.338Z,8.2
2019-03-29T03:29:17.239Z,8.2
2019-03-29T03:30:17.282Z,8.19
2019-03-29T03:31:17.391Z,8.2
2019-03-29T03:32:17.346Z,8.16
2019-03-29T03:33:17.289Z,8.16
2019-03-29T03:34:17.255Z,8.14
2019-03-29T03:35:17.301Z,8.12
2019-03-29T03:36:17.260Z,8.1
2019-03-29T03:37:17.252Z,8.09
2019-03-29T03:38:17.247Z,8.09
2019-03-29T03:39:32.847Z,8.12
2019-03-29T03:40:17.243Z,8.09
2019-03-29T03:41:17.202Z,8.09
2019-03-29T03:42:17.227Z,8.06
2019-03-29T03:43:17.185Z,8.08
2019-03-29T03:44:17.214Z,8.09
2019-03-29T03:45:17.177Z,8.06
2019-03-29T03:46:17.189Z,8.09
2019-03-29T03:47:17.176Z,8.03
2019-03-29T03:48:17.204Z,8.02
2019-03-29T03:49:17.176Z,7.98
2019-03-29T03:50:17.233Z,8.01
2019-03-29T03:51:17.173Z,7.98
2019-03-29T03:52:19.608Z,7.98
2019-03-29T03:53:17.163Z,7.95
2019-03-29T03:54:17.207Z,7.96
2019-03-29T03:55:17.187Z,7.93
2019-03-29T03:56:17.154Z,7.92
2019-03-29T03:57:17.184Z,7.93
2019-03-29T03:58:17.183Z,7.92
2019-03-29T03:59:17.215Z,7.92
2019-03-29T04:00:17.428Z,7.89
2019-03-29T04:01:17.176Z,7.91
2019-03-29T04:02:17.172Z,7.91
2019-03-29T04:03:17.175Z,7.85
2019-03-29T04:04:17.214Z,7.81
2019-03-29T04:05:17.235Z,7.75
2019-03-29T04:06:17.202Z,7.67
2019-03-29T04:07:17.181Z,7.65
2019-03-29T04:08:17.192Z,7.55
2019-03-29T04:09:17.207Z,7.57
2019-03-29T04:10:17.174Z,7.59
2019-03-29T04:11:17.580Z,7.58
2019-03-29T04:12:18.257Z,7.57
2019-03-29T04:13:17.169Z,7.55
2019-03-29T04:14:17.174Z,7.54
2019-03-29T04:15:17.177Z,7.54
2019-03-29T04:16:17.366Z,7.54
2019-03-29T04:17:18.044Z,7.54
2019-03-29T04:18:17.226Z,7.51
2019-03-29T04:19:17.265Z,7.51
2019-03-29T04:20:17.159Z,7.48
2019-03-29T04:21:17.331Z,7.47
2019-03-29T04:22:17.180Z,7.47
2019-03-29T04:23:18.198Z,7.44
2019-03-29T04:24:17.358Z,7.44
2019-03-29T04:25:17.234Z,7.41
2019-03-29T04:26:17.136Z,7.4
2019-03-29T04:27:17.138Z,7.37
2019-03-29T04:28:17.159Z,7.36
2019-03-29T04:29:17.199Z,7.37
2019-03-29T04:30:17.134Z,7.34
2019-03-29T04:31:17.220Z,7.33
2019-03-29T04:32:17.119Z,7.26
2019-03-29T04:33:17.232Z,7.22
2019-03-29T04:34:17.182Z,7.09
2019-03-29T04:35:17.174Z,7.12
2019-03-29T04:36:18.528Z,7.06
2019-03-29T04:37:17.117Z,7.02
2019-03-29T04:38:17.123Z,6.99
2019-03-29T04:39:17.141Z,6.98
2019-03-29T04:40:17.140Z,6.98
2019-03-29T04:41:17.124Z,6.96
2019-03-29T04:42:17.116Z,6.94
2019-03-29T04:43:17.159Z,6.95
2019-03-29T04:44:17.108Z,6.95
2019-03-29T04:45:17.148Z,6.96
2019-03-29T04:46:17.153Z,6.95
2019-03-29T04:47:17.137Z,6.96
2019-03-29T04:48:17.159Z,6.98
2019-03-29T04:49:17.073Z,6.92
2019-03-29T04:50:17.072Z,6.92
2019-03-29T04:51:17.103Z,6.88
2019-03-29T04:52:17.128Z,6.87
2019-03-29T04:53:17.178Z,6.84
2019-03-29T04:54:17.495Z,6.74
2019-03-29T04:55:17.140Z,6.71
2019-03-29T04:56:17.275Z,6.73
2019-03-29T04:57:17.193Z,6.68
2019-03-29T04:58:17.076Z,6.6
2019-03-29T04:59:17.082Z,6.64
2019-03-29T05:00:17.085Z,6.65
2019-03-29T05:01:17.711Z,6.65
2019-03-29T05:02:17.207Z,6.67
2019-03-29T05:03:17.082Z,6.68
2019-03-29T05:04:17.097Z,6.68
2019-03-29T05:05:17.121Z,6.68
2019-03-29T05:06:17.055Z,6.71
2019-03-29T05:07:17.122Z,6.75
2019-03-29T05:08:17.065Z,6.73
2019-03-29T05:09:17.094Z,6.75
2019-03-29T05:10:22.156Z,6.73
2019-03-29T05:11:17.094Z,6.75
2019-03-29T05:12:17.042Z,6.77
2019-03-29T05:13:17.102Z,6.78
2019-03-29T05:14:17.053Z,6.74
2019-03-29T05:15:17.037Z,6.7
2019-03-29T05:16:17.689Z,6.68
2019-03-29T05:17:17.079Z,6.7
2019-03-29T05:18:17.092Z,6.71
2019-03-29T05:19:17.172Z,6.71
2019-03-29T05:20:17.041Z,6.74
2019-03-29T05:21:17.070Z,6.74
2019-03-29T05:22:17.077Z,6.74
2019-03-29T05:23:17.050Z,6.74
2019-03-29T05:24:17.060Z,6.75
2019-03-29T05:25:17.139Z,6.77
2019-03-29T05:26:17.026Z,6.75
2019-03-29T05:27:17.072Z,6.78
2019-03-29T05:28:17.063Z,6.78
2019-03-29T05:29:17.108Z,6.8
2019-03-29T05:30:17.094Z,6.77
2019-03-29T05:31:17.082Z,6.75
2019-03-29T05:32:18.127Z,6.75
2019-03-29T05:33:17.075Z,6.78
2019-03-29T05:34:17.055Z,6.78
2019-03-29T05:35:17.047Z,6.8
2019-03-29T05:36:17.074Z,6.8
2019-03-29T05:37:17.037Z,6.78
2019-03-29T05:38:17.240Z,6.77
2019-03-29T05:39:17.014Z,6.9
2019-03-29T05:40:17.057Z,6.91
2019-03-29T05:41:17.043Z,6.96
2019-03-29T05:42:17.017Z,6.92
2019-03-29T05:43:17.110Z,6.91
2019-03-29T05:44:17.032Z,6.91
2019-03-29T05:45:17.023Z,6.91
2019-03-29T05:46:17.029Z,6.88
2019-03-29T05:47:17.063Z,6.84
2019-03-29T05:48:17.004Z,6.88
2019-03-29T05:49:17.084Z,6.84
2019-03-29T05:50:16.995Z,6.84
2019-03-29T05:51:17.040Z,6.83
2019-03-29T05:52:17.003Z,6.84
2019-03-29T05:53:18.367Z,6.81
2019-03-29T05:54:17.116Z,6.84
2019-03-29T05:55:17.067Z,6.84
2019-03-29T05:56:17.000Z,6.85
2019-03-29T05:57:17.063Z,6.87
2019-03-29T05:58:17.026Z,6.87
2019-03-29T05:59:17.257Z,6.87
2019-03-29T06:00:17.135Z,6.91
2019-03-29T06:01:17.093Z,6.9
2019-03-29T06:02:16.975Z,6.94
2019-03-29T06:03:17.029Z,6.95
2019-03-29T06:04:17.090Z,6.98
2019-03-29T06:05:16.974Z,7.01
2019-03-29T06:06:16.991Z,7.02
2019-03-29T06:07:17.040Z,7.08
2019-03-29T06:08:17.009Z,7.11
2019-03-29T06:09:17.039Z,7.18
2019-03-29T06:10:16.973Z,7.2
2019-03-29T06:11:17.087Z,7.24
2019-03-29T06:12:16.990Z,7.36
2019-03-29T06:13:17.062Z,7.39
2019-03-29T06:14:17.044Z,7.41
2019-03-29T06:15:16.973Z,7.47
2019-03-29T06:16:17.021Z,7.57
2019-03-29T06:17:16.975Z,7.67
2019-03-29T06:18:16.976Z,7.75
2019-03-29T06:19:16.947Z,7.78
2019-03-29T06:20:17.197Z,7.82
2019-03-29T06:21:17.041Z,7.88
2019-03-29T06:22:17.081Z,7.89
2019-03-29T06:23:16.989Z,7.93
2019-03-29T06:24:17.013Z,7.98
2019-03-29T06:25:17.044Z,8.01
2019-03-29T06:26:17.013Z,8.08
2019-03-29T06:27:16.970Z,8.1
2019-03-29T06:28:17.080Z,8.16
2019-03-29T06:29:16.955Z,8.2
2019-03-29T06:30:16.976Z,8.23
2019-03-29T06:31:16.925Z,8.21
2019-03-29T06:32:16.959Z,8.26
2019-03-29T06:33:17.014Z,8.29
2019-03-29T06:34:16.990Z,8.3
2019-03-29T06:35:16.980Z,8.31
2019-03-29T06:36:17.080Z,8.31
2019-03-29T06:37:16.971Z,8.38
2019-03-29T06:38:16.983Z,8.4
2019-03-29T06:39:16.947Z,8.44
2019-03-29T06:40:16.939Z,8.47
2019-03-29T06:41:17.203Z,8.49
2019-03-29T06:42:17.500Z,8.54
2019-03-29T06:43:17.165Z,8.58
2019-03-29T06:44:16.978Z,8.62
2019-03-29T06:45:16.979Z,8.64
2019-03-29T06:46:16.924Z,8.65
2019-03-29T06:47:17.075Z,8.74
2019-03-29T06:48:17.047Z,8.75
2019-03-29T06:49:16.971Z,8.74
2019-03-29T06:50:16.976Z,8.79
2019-03-29T06:51:17.049Z,8.82
2019-03-29T06:52:18.115Z,8.86
2019-03-29T06:53:16.946Z,8.91
2019-03-29T06:54:16.982Z,8.95
2019-03-29T06:55:16.956Z,8.98
2019-03-29T06:56:16.940Z,8.95
2019-03-29T06:57:16.933Z,9
2019-03-29T06:58:16.907Z,9.04
2019-03-29T06:59:16.984Z,9.06
2019-03-29T07:00:16.899Z,9.06
2019-03-29T07:01:17.017Z,9.09
2019-03-29T07:02:16.936Z,9.13
2019-03-29T07:03:16.927Z,9.11
2019-03-29T07:04:17.006Z,9.13
2019-03-29T07:05:16.929Z,9.21
2019-03-29T07:06:16.965Z,9.21
2019-03-29T07:07:16.941Z,9.24
2019-03-29T07:08:16.945Z,9.26
2019-03-29T07:09:16.900Z,9.27
2019-03-29T07:10:16.915Z,9.3
2019-03-29T07:11:18.404Z,9.29
2019-03-29T07:12:16.970Z,9.35
2019-03-29T07:13:16.967Z,9.38
2019-03-29T07:14:16.917Z,9.37
2019-03-29T07:15:16.957Z,9.42
2019-03-29T07:16:16.969Z,9.42
2019-03-29T07:17:16.920Z,9.47
2019-03-29T07:18:16.889Z,9.49
2019-03-29T07:19:16.875Z,9.51
2019-03-29T07:20:18.268Z,9.57
2019-03-29T07:21:22.448Z,9.58
2019-03-29T07:22:16.886Z,9.65
2019-03-29T07:23:16.922Z,9.66
2019-03-29T07:24:17.070Z,9.7
2019-03-29T07:25:17.283Z,9.72
2019-03-29T07:26:16.910Z,9.75
2019-03-29T07:27:16.895Z,9.82
2019-03-29T07:28:16.869Z,9.81
2019-03-29T07:29:16.883Z,9.85
2019-03-29T07:30:16.873Z,9.88
2019-03-29T07:31:16.966Z,9.9
2019-03-29T07:32:16.857Z,9.94
2019-03-29T07:33:16.880Z,9.94
2019-03-29T07:34:16.949Z,9.97
2019-03-29T07:35:16.890Z,10.02
2019-03-29T07:36:16.940Z,10.04
2019-03-29T07:37:17.778Z,10.06
2019-03-29T07:38:16.889Z,10.1
2019-03-29T07:39:17.744Z,10.14
2019-03-29T07:40:16.902Z,10.16
2019-03-29T07:41:32.700Z,10.2
2019-03-29T07:42:16.871Z,10.2
2019-03-29T07:43:16.845Z,10.25
2019-03-29T07:44:16.911Z,10.23
2019-03-29T07:45:16.854Z,10.27
2019-03-29T07:46:17.220Z,10.32
2019-03-29T07:47:16.905Z,10.35
2019-03-29T07:48:16.867Z,10.39
2019-03-29T07:49:16.929Z,10.39
2019-03-29T07:50:19.451Z,10.49
2019-03-29T07:51:16.881Z,10.51
2019-03-29T07:52:16.856Z,10.56
2019-03-29T07:53:16.822Z,10.58
2019-03-29T07:54:16.955Z,10.58
2019-03-29T07:55:16.971Z,10.59
2019-03-29T07:56:16.845Z,10.66
2019-03-29T07:57:18.178Z,10.71
2019-03-29T07:58:16.805Z,10.73
2019-03-29T07:59:18.226Z,10.78
2019-03-29T08:00:20.927Z,10.79
2019-03-29T08:01:16.840Z,10.79
2019-03-29T08:02:16.932Z,10.83
2019-03-29T08:03:16.816Z,10.89
2019-03-29T08:04:16.830Z,10.94
2019-03-29T08:05:18.504Z,10.97
2019-03-29T08:06:16.839Z,11.01
2019-03-29T08:07:31.335Z,11.03
2019-03-29T08:08:32.796Z,11.03
2019-03-29T08:09:23.026Z,11.04
2019-03-29T08:10:31.791Z,11.04
2019-03-29T08:11:28.431Z,11.06
2019-03-29T08:12:16.881Z,11.06
2019-03-29T08:13:16.784Z,11.08
2019-03-29T08:14:16.851Z,11.12
2019-03-29T08:15:16.814Z,11.25
2019-03-29T08:16:16.785Z,11.27
2019-03-29T08:17:16.793Z,11.31
2019-03-29T08:18:16.809Z,11.35
2019-03-29T08:19:18.568Z,11.34
2019-03-29T08:20:44.785Z,11.35
2019-03-29T08:21:16.873Z,11.37
2019-03-29T08:22:16.856Z,11.41
2019-03-29T08:23:17.051Z,11.41
2019-03-29T08:24:16.829Z,11.49
2019-03-29T08:25:16.856Z,11.48
2019-03-29T08:26:16.825Z,11.56
2019-03-29T08:27:16.847Z,11.58
2019-03-29T08:28:16.771Z,11.61
2019-03-29T08:29:17.103Z,11.64
2019-03-29T08:30:16.773Z,11.65
2019-03-29T08:31:16.916Z,11.66
2019-03-29T08:32:17.728Z,11.69
2019-03-29T08:33:16.800Z,11.86
2019-03-29T08:34:16.807Z,11.83
2019-03-29T08:35:16.844Z,11.9
2019-03-29T08:36:16.767Z,11.92
2019-03-29T08:37:16.880Z,11.87
2019-03-29T08:38:16.782Z,11.9
2019-03-29T08:39:28.671Z,11.9
2019-03-29T08:40:16.767Z,11.96
2019-03-29T08:41:16.793Z,11.96
2019-03-29T08:42:19.165Z,12.01
2019-03-29T08:43:16.796Z,12.01
2019-03-29T08:44:16.861Z,12.04
2019-03-29T08:45:16.833Z,12.08
2019-03-29T08:46:16.792Z,12.13
2019-03-29T08:47:16.762Z,12.14
2019-03-29T08:48:16.780Z,12.18
2019-03-29T08:49:17.391Z,12.18
2019-03-29T08:50:16.896Z,12.23
2019-03-29T08:51:17.048Z,12.24
2019-03-29T08:52:16.857Z,12.27
2019-03-29T08:53:16.886Z,12.29
2019-03-29T08:54:16.804Z,12.34
2019-03-29T08:55:18.086Z,12.38
2019-03-29T08:56:16.780Z,12.41
2019-03-29T08:57:16.779Z,12.41
2019-03-29T08:58:16.833Z,12.42
2019-03-29T08:59:18.071Z,12.45
2019-03-29T09:00:18.228Z,12.52
2019-03-29T09:01:20.009Z,12.53
2019-03-29T09:02:16.839Z,12.59
2019-03-29T09:03:16.722Z,12.67
2019-03-29T09:04:16.763Z,12.72
2019-03-29T09:05:16.771Z,12.72
2019-03-29T09:06:16.721Z,12.73
2019-03-29T09:07:16.734Z,12.74
2019-03-29T09:08:16.772Z,12.74
2019-03-29T09:09:16.789Z,12.79
2019-03-29T09:10:16.822Z,12.8
2019-03-29T09:11:16.754Z,12.8
2019-03-29T09:12:16.758Z,12.86
2019-03-29T09:13:16.826Z,12.86
2019-03-29T09:14:16.716Z,12.91
2019-03-29T09:15:16.729Z,12.96
2019-03-29T09:16:16.783Z,12.97
2019-03-29T09:17:16.768Z,13.03
2019-03-29T09:18:16.742Z,13.08
2019-03-29T09:19:16.751Z,13.08
2019-03-29T09:20:16.728Z,13.13
2019-03-29T09:21:16.742Z,13.21
2019-03-29T09:22:16.933Z,13.27
2019-03-29T09:23:16.735Z,13.28
2019-03-29T09:24:22.771Z,13.27
2019-03-29T09:25:16.721Z,13.31
2019-03-29T09:26:16.695Z,13.31
2019-03-29T09:27:16.772Z,13.27
2019-03-29T09:28:16.731Z,13.24
2019-03-29T09:29:17.810Z,13.24
2019-03-29T09:30:16.733Z,13.28
2019-03-29T09:31:16.701Z,13.22
2019-03-29T09:32:16.695Z,13.25
2019-03-29T09:33:16.738Z,13.24
2019-03-29T09:34:16.699Z,13.31
2019-03-29T09:35:16.726Z,13.32
2019-03-29T09:36:16.728Z,13.28
2019-03-29T09:37:16.703Z,13.24
2019-03-29T09:38:16.687Z,13.21
2019-03-29T09:39:16.664Z,13.22
2019-03-29T09:40:16.682Z,13.27
2019-03-29T09:41:16.683Z,13.25
2019-03-29T09:42:30.516Z,13.27
2019-03-29T09:43:16.669Z,13.25
2019-03-29T09:44:18.462Z,13.25
2019-03-29T09:45:16.722Z,13.27
2019-03-29T09:46:16.667Z,13.29
2019-03-29T09:47:16.702Z,13.27
2019-03-29T09:48:16.693Z,13.24
2019-03-29T09:49:16.839Z,13.27
2019-03-29T09:50:16.672Z,13.35
2019-03-29T09:51:16.680Z,13.42
2019-03-29T09:52:16.653Z,13.47
2019-03-29T09:53:16.698Z,13.57
2019-03-29T09:54:20.879Z,13.69
2019-03-29T09:55:19.366Z,13.73
2019-03-29T09:56:19.708Z,13.8
2019-03-29T09:57:16.650Z,13.87
2019-03-29T09:58:17.201Z,13.91
2019-03-29T09:59:16.828Z,13.98
2019-03-29T10:00:23.839Z,14.07
2019-03-29T10:01:21.240Z,14.14
2019-03-29T10:02:16.666Z,14.19
2019-03-29T10:03:16.899Z,14.21
2019-03-29T10:04:16.665Z,14.29
2019-03-29T10:05:20.702Z,14.31
2019-03-29T10:06:16.693Z,14.33
2019-03-29T10:07:16.670Z,14.4
2019-03-29T10:08:16.684Z,14.45
2019-03-29T10:09:16.663Z,14.49
2019-03-29T10:10:16.723Z,14.56
2019-03-29T10:11:16.673Z,14.62
2019-03-29T10:12:16.723Z,14.67
2019-03-29T10:13:16.737Z,14.69
2019-03-29T10:14:17.498Z,14.69
2019-03-29T10:15:16.662Z,14.67
2019-03-29T10:16:16.692Z,14.7
2019-03-29T10:17:16.789Z,14.73
2019-03-29T10:18:16.668Z,14.73
2019-03-29T10:19:16.632Z,14.73
2019-03-29T10:20:16.609Z,14.72
2019-03-29T10:21:17.792Z,14.74
2019-03-29T10:22:16.729Z,14.84
2019-03-29T10:23:17.924Z,14.83
2019-03-29T10:24:16.633Z,14.86
2019-03-29T10:25:20.592Z,14.91
2019-03-29T10:26:16.616Z,14.94
2019-03-29T10:27:19.458Z,14.94
2019-03-29T10:28:16.649Z,14.97
2019-03-29T10:29:16.698Z,15.02
2019-03-29T10:30:16.669Z,15.09
2019-03-29T10:31:32.967Z,15.09
2019-03-29T10:32:16.610Z,15.05
2019-03-29T10:33:16.647Z,15.08
2019-03-29T10:34:16.600Z,15.12
2019-03-29T10:35:16.662Z,15.21
2019-03-29T10:36:16.643Z,15.28
2019-03-29T10:37:16.680Z,15.36
2019-03-29T10:38:18.829Z,15.34
2019-03-29T10:39:16.613Z,15.38
2019-03-29T10:40:16.654Z,15.42
2019-03-29T10:41:16.688Z,15.39
2019-03-29T10:42:16.609Z,15.41
2019-03-29T10:43:16.697Z,15.49
2019-03-29T10:44:16.658Z,15.5
2019-03-29T10:45:16.671Z,15.47
2019-03-29T10:46:16.602Z,15.31
2019-03-29T10:47:16.702Z,15.35
2019-03-29T10:48:17.983Z,15.35
2019-03-29T10:49:16.806Z,15.41
2019-03-29T10:50:16.597Z,15.47
2019-03-29T10:51:16.648Z,15.52
2019-03-29T10:52:16.624Z,15.54
2019-03-29T10:53:16.610Z,15.6
2019-03-29T10:54:16.622Z,15.63
2019-03-29T10:55:16.640Z,15.69
2019-03-29T10:56:17.956Z,15.67
2019-03-29T10:57:16.597Z,15.74
2019-03-29T10:58:16.572Z,15.76
2019-03-29T10:59:28.224Z,15.84
2019-03-29T11:00:16.684Z,15.82
2019-03-29T11:01:16.610Z,15.62
2019-03-29T11:02:16.569Z,15.57
2019-03-29T11:03:16.617Z,15.62
2019-03-29T11:04:16.565Z,15.67
2019-03-29T11:05:16.643Z,15.85
2019-03-29T11:06:16.624Z,15.76
2019-03-29T11:07:16.580Z,15.77
2019-03-29T11:08:16.565Z,15.64
2019-03-29T11:09:16.624Z,15.64
2019-03-29T11:10:16.617Z,15.71
2019-03-29T11:11:16.594Z,15.67
2019-03-29T11:12:16.563Z,15.73
2019-03-29T11:13:16.563Z,15.82
2019-03-29T11:14:16.550Z,15.91
2019-03-29T11:15:16.544Z,15.85
2019-03-29T11:16:16.659Z,15.94
2019-03-29T11:17:16.572Z,15.91
2019-03-29T11:18:16.622Z,15.95
2019-03-29T11:19:16.552Z,16.09
2019-03-29T11:20:18.979Z,16.12
2019-03-29T11:21:16.738Z,16.02
2019-03-29T11:22:16.908Z,16.01
2019-03-29T11:23:16.604Z,15.99
2019-03-29T11:24:16.640Z,15.98
2019-03-29T11:25:16.624Z,16.08
2019-03-29T11:26:16.571Z,16.08
2019-03-29T11:27:16.594Z,16.12
2019-03-29T11:28:16.565Z,16.12
2019-03-29T11:29:16.520Z,16.15
2019-03-29T11:30:16.560Z,16.26
2019-03-29T11:31:16.583Z,16.33
2019-03-29T11:32:16.586Z,16.35
2019-03-29T11:33:16.603Z,16.36
2019-03-29T11:34:16.566Z,16.4
2019-03-29T11:35:16.565Z,16.49
2019-03-29T11:36:16.569Z,16.54
2019-03-29T11:37:16.526Z,16.62
2019-03-29T11:38:16.584Z,16.7
2019-03-29T11:39:16.544Z,16.74
2019-03-29T11:40:16.558Z,16.73
2019-03-29T11:41:16.539Z,16.8
2019-03-29T11:42:16.584Z,16.73
2019-03-29T11:43:27.630Z,16.64
2019-03-29T11:44:16.553Z,16.57
2019-03-29T11:45:16.568Z,16.5
2019-03-29T11:46:16.558Z,16.49
2019-03-29T11:47:16.577Z,16.52
2019-03-29T11:48:16.552Z,16.5
2019-03-29T11:49:16.578Z,16.49
2019-03-29T11:50:16.535Z,16.45
2019-03-29T11:51:20.234Z,16.4
2019-03-29T11:52:16.549Z,16.42
2019-03-29T11:53:16.542Z,16.35
2019-03-29T11:54:16.514Z,16.29
2019-03-29T11:55:16.701Z,16.14
2019-03-29T11:56:16.519Z,16.05
2019-03-29T11:57:16.562Z,16.09
2019-03-29T11:58:16.537Z,16.19
2019-03-29T11:59:16.541Z,16.32
2019-03-29T12:00:16.519Z,16.37
2019-03-29T12:01:16.519Z,16.46
2019-03-29T12:02:31.928Z,16.52
2019-03-29T12:03:16.536Z,16.62
2019-03-29T12:04:16.527Z,16.75
2019-03-29T12:05:16.517Z,16.84
2019-03-29T12:06:16.570Z,16.91
2019-03-29T12:07:16.505Z,16.97
2019-03-29T12:08:16.506Z,17.04
2019-03-29T12:09:16.523Z,17.16
2019-03-29T12:10:16.524Z,17.26
2019-03-29T12:11:16.558Z,17.3
2019-03-29T12:12:16.488Z,17.35
2019-03-29T12:13:16.546Z,17.29
2019-03-29T12:14:16.485Z,17.29
2019-03-29T12:15:16.483Z,17.33
2019-03-29T12:16:16.479Z,17.37
2019-03-29T12:17:16.492Z,17.39
2019-03-29T12:18:16.517Z,17.4
2019-03-29T12:19:16.484Z,17.52
2019-03-29T12:20:16.528Z,17.49
2019-03-29T12:21:16.490Z,17.66
2019-03-29T12:22:16.506Z,17.74
2019-03-29T12:23:16.479Z,17.8
2019-03-29T12:24:16.472Z,17.87
2019-03-29T12:25:16.541Z,17.84
2019-03-29T12:26:16.494Z,17.88
2019-03-29T12:27:16.470Z,17.82
2019-03-29T12:28:16.473Z,17.81
2019-03-29T12:29:16.516Z,17.78
2019-03-29T12:30:32.604Z,17.82
2019-03-29T12:31:16.516Z,17.92
2019-03-29T12:32:16.481Z,18.02
2019-03-29T12:33:16.520Z,18.05
2019-03-29T12:34:16.537Z,18.08
2019-03-29T12:35:16.558Z,18.13
2019-03-29T12:36:16.472Z,18.15
2019-03-29T12:37:17.857Z,18.08
2019-03-29T12:38:16.457Z,18.08
2019-03-29T12:39:16.466Z,18.05
2019-03-29T12:40:16.500Z,17.89
2019-03-29T12:41:16.498Z,17.78
2019-03-29T12:42:16.447Z,17.87
2019-03-29T12:43:16.568Z,17.88
2019-03-29T12:44:16.548Z,17.98
2019-03-29T12:45:16.465Z,17.92
2019-03-29T12:46:16.492Z,17.88
2019-03-29T12:47:16.615Z,17.97
2019-03-29T12:48:16.503Z,17.97
2019-03-29T12:49:16.530Z,18.02
2019-03-29T12:50:16.467Z,18.11
2019-03-29T12:51:16.442Z,18.17
2019-03-29T12:52:16.581Z,18.19
2019-03-29T12:53:16.450Z,18.29
2019-03-29T12:54:16.517Z,18.32
2019-03-29T12:55:16.433Z,18.23
2019-03-29T12:56:16.470Z,18.2
2019-03-29T12:57:16.549Z,18.33
2019-03-29T12:58:16.516Z,18.47
2019-03-29T12:59:16.696Z,18.6
2019-03-29T13:00:16.534Z,18.74
2019-03-29T13:01:16.435Z,18.87
2019-03-29T13:02:16.526Z,18.82
2019-03-29T13:03:16.459Z,18.8
2019-03-29T13:04:16.477Z,18.85
2019-03-29T13:05:16.508Z,18.91
2019-03-29T13:06:16.446Z,18.99
2019-03-29T13:07:16.509Z,19.05
2019-03-29T13:08:16.513Z,19.15
2019-03-29T13:09:16.533Z,19.17